Time;durP1;ratioP1;P1;durP2;ratioP2;P2;SDS_P1;SDS_P2;PMS_P1;PMS_P2;Temp;Humidity;BMP_temperature;BMP_pressure;BME280_temperature;BME280_humidity;BME280_pressure;Samples;Min_cycle;Max_cycle;Signal;HPM_P1;HPM_P2
2022/09/20 00:01:23;;;;;;;9.77;3.77;;;;;;;10.64;100.00;102096.69;5135631;27;20031;-85
2022/09/20 00:03:52;;;;;;;14.25;4.13;;;;;;;10.66;100.00;102100.09;5131240;27;20039;-85
2022/09/20 00:06:20;;;;;;;8.32;4.07;;;;;;;10.66;100.00;102102.81;5134238;27;20069;-85
2022/09/20 00:08:47;;;;;;;13.00;4.88;;;;;;;10.65;100.00;102101.09;5134542;27;20058;-85
2022/09/20 00:11:19;;;;;;;12.57;4.23;;;;;;;10.62;100.00;102101.47;5134280;27;20035;-85
2022/09/20 00:13:50;;;;;;;12.25;4.35;;;;;;;10.64;100.00;102102.13;5134564;27;20034;-84
2022/09/20 00:16:22;;;;;;;12.02;4.43;;;;;;;10.64;100.00;102106.72;5134670;27;20055;-84
2022/09/20 00:18:53;;;;;;;10.75;4.43;;;;;;;10.62;100.00;102096.06;5134450;27;20039;-85
2022/09/20 00:21:20;;;;;;;13.10;4.57;;;;;;;10.61;100.00;102099.78;5136502;27;20079;-85
2022/09/20 00:23:46;;;;;;;9.60;4.67;;;;;;;10.62;100.00;102095.22;5134331;27;20053;-85
2022/09/20 00:26:12;;;;;;;11.38;4.75;;;;;;;10.62;100.00;102095.22;5135453;27;20458;-85
2022/09/20 00:28:38;;;;;;;11.67;4.30;;;;;;;10.60;100.00;102092.69;5134210;27;20115;-85
2022/09/20 00:31:04;;;;;;;9.38;4.22;;;;;;;10.57;100.00;102089.50;5117885;27;20134;-85
2022/09/20 00:36:13;;;;;;;10.30;4.20;;;;;;;10.48;100.00;102097.72;5120406;27;20084;-85
2022/09/20 00:38:39;;;;;;;16.38;4.40;;;;;;;10.46;100.00;102097.03;5133761;27;20031;-85
2022/09/20 00:41:05;;;;;;;9.90;4.27;;;;;;;10.43;100.00;102104.72;5100362;27;20030;-85
2022/09/20 00:43:36;;;;;;;18.50;4.53;;;;;;;10.40;100.00;102105.94;5117432;27;20028;-84
2022/09/20 00:46:03;;;;;;;10.13;4.50;;;;;;;10.38;100.00;102101.69;5133731;27;20092;-85
2022/09/20 00:48:30;;;;;;;10.95;4.20;;;;;;;10.32;100.00;102100.56;5134118;27;20023;-85
2022/09/20 00:51:08;;;;;;;12.68;4.50;;;;;;;10.29;100.00;102106.31;5134410;27;20062;-85
2022/09/20 00:53:41;;;;;;;9.85;4.13;;;;;;;10.25;100.00;102102.31;5134105;27;20443;-85
2022/09/20 00:56:19;;;;;;;11.75;4.25;;;;;;;10.20;100.00;102105.53;5134101;27;20059;-85
2022/09/20 00:59:09;;;;;;;11.97;4.53;;;;;;;10.16;100.00;102093.41;5133748;27;20591;-84
2022/09/20 01:01:35;;;;;;;10.60;4.45;;;;;;;10.12;100.00;102102.91;5133731;27;20467;-84
2022/09/20 01:04:02;;;;;;;13.43;4.35;;;;;;;10.05;100.00;102096.53;5133659;27;20038;-85
2022/09/20 01:06:29;;;;;;;14.00;4.20;;;;;;;9.97;100.00;102103.69;5133427;27;20035;-85
2022/09/20 01:08:58;;;;;;;11.70;4.90;;;;;;;9.90;100.00;102102.72;5133523;27;20126;-85
2022/09/20 01:11:25;;;;;;;13.73;4.53;;;;;;;9.86;100.00;102097.84;5133571;27;20063;-85
2022/09/20 01:13:50;;;;;;;10.07;4.15;;;;;;;9.82;100.00;102091.97;5116460;27;20035;-85
2022/09/20 01:16:17;;;;;;;12.80;4.57;;;;;;;9.80;100.00;102100.28;5133646;27;20114;-85
2022/09/20 01:18:44;;;;;;;15.23;4.47;;;;;;;9.78;100.00;102087.91;5133677;27;20125;-84
2022/09/20 01:21:10;;;;;;;7.07;4.50;;;;;;;9.75;100.00;102096.41;5116345;28;20126;-85
2022/09/20 01:24:01;;;;;;;8.10;4.15;;;;;;;9.78;100.00;102096.88;5116225;28;20027;-85
2022/09/20 01:27:03;;;;;;;16.60;4.60;;;;;;;9.83;100.00;102088.22;5133965;28;20031;-85
2022/09/20 01:30:08;;;;;;;9.55;4.50;;;;;;;9.90;100.00;102091.88;5081836;27;20045;-85
2022/09/20 01:33:07;;;;;;;9.68;4.30;;;;;;;9.96;100.00;102104.72;5054335;28;20032;-85
2022/09/20 01:35:34;;;;;;;10.73;3.92;;;;;;;10.01;100.00;102098.78;5066023;28;20040;-85
2022/09/20 01:38:18;;;;;;;8.80;3.88;;;;;;;10.05;100.00;102100.06;5109481;28;20126;-85
2022/09/20 01:40:55;;;;;;;7.87;3.77;;;;;;;10.09;100.00;102103.28;5133360;28;20045;-85
2022/09/20 01:43:33;;;;;;;15.43;4.43;;;;;;;10.13;100.00;102102.72;5133083;28;20027;-85
2022/09/20 01:46:44;;;;;;;14.52;4.10;;;;;;;10.15;100.00;102097.97;5132955;28;20043;-85
2022/09/20 01:49:09;;;;;;;10.02;3.92;;;;;;;10.22;100.00;102103.50;5071591;28;20123;-85
2022/09/20 01:51:34;;;;;;;7.23;3.63;;;;;;;10.25;100.00;102096.88;5121357;27;20067;-85
2022/09/20 01:54:12;;;;;;;8.77;3.90;;;;;;;10.27;100.00;102101.09;5133415;28;20378;-85
2022/09/20 01:56:58;;;;;;;7.55;3.90;;;;;;;10.29;100.00;102106.31;5133754;28;20050;-85
2022/09/20 02:00:00;;;;;;;10.77;3.92;;;;;;;10.30;100.00;102103.44;5134469;27;20027;-85
2022/09/20 02:03:04;;;;;;;8.20;3.53;;;;;;;10.32;100.00;102097.84;5133067;28;20028;-85
2022/09/20 02:06:01;;;;;;;11.10;4.03;;;;;;;10.33;100.00;102092.28;5070770;28;20488;-85
2022/09/20 02:08:54;;;;;;;7.82;3.90;;;;;;;10.37;100.00;102098.16;5046452;28;20079;-85
2022/09/20 02:11:28;;;;;;;10.90;3.83;;;;;;;10.38;100.00;102102.56;5121600;28;20066;-85
2022/09/20 02:14:04;;;;;;;12.23;3.72;;;;;;;10.41;100.00;102107.63;5134345;27;20123;-85
2022/09/20 02:16:42;;;;;;;12.87;4.23;;;;;;;10.44;100.00;102104.53;5134934;27;20023;-84
2022/09/20 02:19:19;;;;;;;9.77;3.33;;;;;;;10.48;100.00;102107.72;5134905;27;20031;-85
2022/09/20 02:22:03;;;;;;;7.82;3.47;;;;;;;10.50;100.00;102106.50;5137022;27;20536;-85
2022/09/20 02:24:55;;;;;;;7.78;4.05;;;;;;;10.52;100.00;102098.19;5136959;27;20027;-85
2022/09/20 02:27:21;;;;;;;11.15;3.70;;;;;;;10.53;100.00;102097.16;5136610;27;20023;-85
2022/09/20 02:29:59;;;;;;;8.27;3.60;;;;;;;10.55;100.00;102094.28;5136544;27;20038;-84
2022/09/20 02:32:25;;;;;;;11.77;3.70;;;;;;;10.53;100.00;102097.16;5136906;27;20031;-85
2022/09/20 02:35:10;;;;;;;10.43;4.25;;;;;;;10.52;100.00;102095.47;5136457;27;20019;-85
2022/09/20 02:38:07;;;;;;;9.18;3.33;;;;;;;10.50;100.00;102098.38;5105336;27;20500;-85
2022/09/20 02:40:45;;;;;;;8.23;3.50;;;;;;;10.47;100.00;102097.91;5136347;27;20023;-85
2022/09/20 02:43:27;;;;;;;7.87;3.47;;;;;;;10.42;100.00;102098.44;5136382;27;20024;-85
2022/09/20 02:45:52;;;;;;;7.20;3.90;;;;;;;10.41;100.00;102102.19;5136857;27;20046;-85
2022/09/20 02:48:27;;;;;;;15.20;4.33;;;;;;;10.42;100.00;102100.31;5137234;27;20382;-85
2022/09/20 02:51:13;;;;;;;11.07;3.60;;;;;;;10.44;100.00;102106.44;5136461;27;20087;-85
2022/09/20 02:53:54;;;;;;;12.35;4.28;;;;;;;10.48;100.00;102105.00;5136211;27;20118;-85
2022/09/20 02:56:39;;;;;;;10.35;4.05;;;;;;;10.51;100.00;102100.06;5137003;27;20023;-85
2022/09/20 02:59:22;;;;;;;10.47;4.17;;;;;;;10.53;100.00;102100.72;5136928;27;20029;-85
2022/09/20 03:02:00;;;;;;;10.75;3.78;;;;;;;10.56;100.00;102096.78;5137325;27;20019;-85
2022/09/20 03:05:00;;;;;;;11.30;3.97;;;;;;;10.57;100.00;102090.34;5137546;27;20106;-85
2022/09/20 03:07:44;;;;;;;7.97;3.88;;;;;;;10.57;100.00;102094.91;5135648;27;20019;-85
2022/09/20 03:10:25;;;;;;;13.30;4.20;;;;;;;10.56;100.00;102083.22;5137199;27;20033;-85
2022/09/20 03:13:01;;;;;;;8.23;3.70;;;;;;;10.56;100.00;102091.38;5135805;27;20023;-85
2022/09/20 03:15:54;;;;;;;11.48;4.22;;;;;;;10.53;100.00;102095.28;5136027;27;20046;-85
2022/09/20 03:18:33;;;;;;;10.07;3.80;;;;;;;10.51;100.00;102104.63;5135486;27;20038;-85
2022/09/20 03:21:21;;;;;;;10.80;5.25;;;;;;;10.50;100.00;102095.66;5135577;27;20027;-85
2022/09/20 03:24:14;;;;;;;11.02;4.20;;;;;;;10.52;100.00;102095.47;5135288;27;20034;-85
2022/09/20 03:26:51;;;;;;;11.17;3.90;;;;;;;10.55;100.00;102102.41;5135707;27;20122;-85
2022/09/20 03:29:47;;;;;;;13.88;4.85;;;;;;;10.57;100.00;102101.22;5135484;27;20062;-85
2022/09/20 03:32:31;;;;;;;11.85;4.40;;;;;;;10.58;100.00;102097.44;5136577;27;20424;-85
2022/09/20 03:35:16;;;;;;;10.40;4.65;;;;;;;10.60;100.00;102100.84;5135656;27;20070;-85
2022/09/20 03:37:45;;;;;;;11.25;4.35;;;;;;;10.62;100.00;102098.75;5136135;27;20030;-85
2022/09/20 03:40:22;;;;;;;11.97;4.80;;;;;;;10.64;100.00;102098.56;5136188;27;20466;-85
2022/09/20 03:42:51;;;;;;;11.15;4.47;;;;;;;10.66;100.00;102100.09;5135488;27;20088;-85
2022/09/20 03:45:48;;;;;;;12.10;4.85;;;;;;;10.67;100.00;102096.34;5117976;27;20471;-85
2022/09/20 03:48:24;;;;;;;13.63;5.00;;;;;;;10.70;100.00;102106.84;5135969;27;20035;-85
2022/09/20 03:50:53;;;;;;;9.35;4.80;;;;;;;10.71;100.00;102105.78;5136198;27;20081;-85
2022/09/20 03:54:03;;;;;;;10.77;4.97;;;;;;;10.74;100.00;102101.88;5134892;27;20034;-85
2022/09/20 03:56:37;;;;;;;11.60;4.95;;;;;;;10.76;100.00;102099.78;5055676;28;20587;-85
2022/09/20 03:59:23;;;;;;;11.75;5.05;;;;;;;10.77;100.00;102100.66;5056192;28;20036;-84
2022/09/20 04:02:27;;;;;;;12.57;4.95;;;;;;;10.82;100.00;102106.34;5107056;27;20039;-85
2022/09/20 04:05:06;;;;;;;11.07;4.70;;;;;;;10.81;100.00;102104.69;5134707;27;20039;-85
2022/09/20 04:08:11;;;;;;;13.00;4.50;;;;;;;10.81;100.00;102100.09;5134881;27;20099;-86
2022/09/20 04:11:18;;;;;;;13.52;4.85;;;;;;;10.82;100.00;102099.06;5101421;27;20541;-85
2022/09/20 04:13:53;;;;;;;12.38;5.20;;;;;;;10.80;100.00;102101.13;5106830;27;20045;-85
2022/09/20 04:16:34;;;;;;;10.75;4.47;;;;;;;10.83;100.00;102091.75;5134234;27;20110;-85
2022/09/20 04:19:02;;;;;;;13.18;5.18;;;;;;;10.81;100.00;102081.09;5134384;27;20034;-85
2022/09/20 04:21:44;;;;;;;8.83;4.73;;;;;;;10.79;100.00;102079.59;5134111;27;20038;-85
2022/09/20 04:24:32;;;;;;;8.75;4.55;;;;;;;10.75;100.00;102086.41;5135172;27;20039;-85
2022/09/20 04:27:22;;;;;;;11.63;4.45;;;;;;;10.75;100.00;102089.13;5135711;27;20474;-85
2022/09/20 04:29:57;;;;;;;11.23;4.25;;;;;;;10.76;100.00;102091.66;5134249;27;20406;-85
2022/09/20 04:32:43;;;;;;;7.97;4.10;;;;;;;10.75;100.00;102091.84;5134447;27;20027;-85
2022/09/20 04:38:30;;;;;;;9.80;4.43;;;;;;;10.74;100.00;102085.56;5136009;27;20370;-85
2022/09/20 04:41:33;;;;;;;7.13;4.25;;;;;;;10.74;100.00;102088.28;5135364;27;20027;-85
2022/09/20 04:44:15;;;;;;;9.70;4.90;;;;;;;10.74;100.00;102092.88;5133690;27;20034;-85
2022/09/20 04:47:12;;;;;;;12.75;5.38;;;;;;;10.71;100.00;102094.09;5133342;27;20043;-85
2022/09/20 04:49:56;;;;;;;10.43;4.60;;;;;;;10.69;100.00;102093.44;5134216;27;20463;-85
2022/09/20 04:52:37;;;;;;;12.02;5.07;;;;;;;10.64;100.00;102098.56;5135870;27;20030;-85
2022/09/20 04:55:34;;;;;;;10.68;5.05;;;;;;;10.63;100.00;102105.03;5134091;27;20031;-85
2022/09/20 04:58:00;;;;;;;9.20;4.57;;;;;;;10.62;100.00;102106.91;5133951;27;20553;-85
2022/09/20 05:00:52;;;;;;;7.22;4.10;;;;;;;10.60;100.00;102100.84;5133680;27;20031;-85
2022/09/20 05:03:42;;;;;;;5.97;4.30;;;;;;;10.59;100.00;102104.56;5102026;27;20035;-85
2022/09/20 05:06:20;;;;;;;10.88;4.20;;;;;;;10.59;100.00;102109.16;5133687;27;20406;-84
2022/09/20 05:09:17;;;;;;;6.78;4.05;;;;;;;10.57;100.00;102103.91;5134885;27;20035;-84
2022/09/20 05:12:15;;;;;;;13.30;4.10;;;;;;;10.55;100.00;102111.38;5133044;27;20035;-84
2022/09/20 05:14:53;;;;;;;9.02;4.10;;;;;;;10.51;100.00;102107.34;5122124;27;20483;-85
2022/09/20 05:17:43;;;;;;;7.70;4.07;;;;;;;10.48;100.00;102114.00;5135109;27;20028;-84
2022/09/20 05:20:45;;;;;;;9.88;4.25;;;;;;;10.44;100.00;102109.97;5134244;27;20019;-85
2022/09/20 05:23:32;;;;;;;6.53;4.10;;;;;;;10.44;100.00;102120.00;5135209;27;20034;-84
2022/09/20 05:26:13;;;;;;;6.82;4.28;;;;;;;10.42;100.00;102120.16;5133293;28;20061;-85
2022/09/20 05:29:01;;;;;;;8.30;4.55;;;;;;;10.39;100.00;102111.53;5134656;27;20035;-85
2022/09/20 05:31:50;;;;;;;8.00;4.13;;;;;;;10.35;100.00;102119.22;5133688;28;20034;-85
2022/09/20 05:34:43;;;;;;;11.10;4.72;;;;;;;10.29;100.00;102126.19;5133926;28;20028;-85
2022/09/20 05:37:36;;;;;;;10.02;4.57;;;;;;;10.31;100.00;102129.53;5132859;28;20058;-84
2022/09/20 05:40:25;;;;;;;9.25;4.68;;;;;;;10.32;100.00;102133.94;5133468;28;20038;-83
2022/09/20 05:43:07;;;;;;;9.68;4.47;;;;;;;10.39;100.00;102139.50;5131728;28;20081;-84
2022/09/20 05:45:58;;;;;;;10.60;5.00;;;;;;;10.45;100.00;102141.50;5133380;28;20047;-84
2022/09/20 05:48:31;;;;;;;8.05;4.50;;;;;;;10.51;100.00;102145.34;5134027;28;20451;-84
2022/09/20 05:51:19;;;;;;;7.57;4.40;;;;;;;10.56;100.00;102139.38;5132738;28;20125;-85
2022/09/20 05:54:20;;;;;;;8.93;4.13;;;;;;;10.60;100.00;102141.53;5133104;27;20035;-85
2022/09/20 05:57:14;;;;;;;11.90;4.60;;;;;;;10.67;100.00;102144.34;5137434;27;20051;-84
2022/09/20 06:00:12;;;;;;;7.33;3.90;;;;;;;10.73;100.00;102143.59;5137085;27;20130;-84
2022/09/20 06:02:47;;;;;;;10.02;3.95;;;;;;;10.77;100.00;102146.81;5133165;27;20150;-85
2022/09/20 06:05:28;;;;;;;8.70;4.10;;;;;;;10.82;100.00;102155.22;5137137;27;20031;-85
2022/09/20 06:08:26;;;;;;;7.22;3.95;;;;;;;10.87;100.00;102156.38;5136975;27;20028;-85
2022/09/20 06:11:19;;;;;;;9.73;4.07;;;;;;;10.91;100.00;102162.28;5137569;27;20351;-84
2022/09/20 06:14:02;;;;;;;9.03;4.27;;;;;;;10.93;100.00;102160.22;5136164;27;20070;-84
2022/09/20 06:16:54;;;;;;;6.25;3.80;;;;;;;11.00;100.00;102168.47;5136922;27;20114;-84
2022/09/20 06:19:32;;;;;;;8.15;4.18;;;;;;;11.00;100.00;102169.31;5137394;27;20122;-84
2022/09/20 06:22:03;;;;;;;11.50;3.95;;;;;;;11.02;100.00;102171.84;5137090;27;20035;-85
2022/09/20 06:24:36;;;;;;;8.18;4.13;;;;;;;11.04;100.00;102164.34;5136489;27;20126;-85
2022/09/20 06:27:27;;;;;;;14.50;3.87;;;;;;;11.12;100.00;102177.00;5136400;27;20113;-84
2022/09/20 06:29:59;;;;;;;11.85;4.43;;;;;;;11.12;100.00;102169.69;5137009;27;20027;-84
2022/09/20 06:32:26;;;;;;;7.80;4.15;;;;;;;11.11;100.00;102168.00;5137304;27;20099;-84
2022/09/20 06:34:53;;;;;;;9.35;3.80;;;;;;;11.14;100.00;102170.34;5135753;27;20050;-84
2022/09/20 06:43:34;;;;;;;9.65;4.20;;;;;;;11.31;100.00;102178.28;5137497;27;20041;-85
2022/09/20 06:46:00;;;;;;;10.00;4.90;;;;;;;11.34;100.00;102178.78;5135975;27;20107;-85
2022/09/20 06:48:26;;;;;;;8.47;4.03;;;;;;;11.39;100.00;102178.22;5118811;27;20122;-85
2022/09/20 06:50:51;;;;;;;8.23;4.45;;;;;;;11.46;100.00;102167.44;5135719;27;20035;-84
2022/09/20 06:53:22;;;;;;;7.97;4.60;;;;;;;11.48;100.00;102165.38;5119006;27;20117;-84
2022/09/20 06:55:48;;;;;;;8.85;4.57;;;;;;;11.53;100.00;102173.78;5135696;27;20031;-84
2022/09/20 06:58:14;;;;;;;10.60;4.25;;;;;;;11.59;100.00;102173.03;5118328;27;20039;-84
2022/09/20 07:00:39;;;;;;;10.60;4.73;;;;;;;11.61;100.00;102172.84;5119407;27;20031;-84
2022/09/20 07:03:05;;;;;;;7.40;4.33;;;;;;;11.64;100.00;102172.47;5136155;27;20031;-85
2022/09/20 07:05:31;;;;;;;9.60;4.25;;;;;;;11.72;100.00;102175.94;5135376;27;20121;-85
2022/09/20 07:07:58;;;;;;;7.80;4.38;;;;;;;11.77;100.00;102176.19;5135278;27;20106;-85
2022/09/20 07:10:27;;;;;;;9.53;4.50;;;;;;;11.81;100.00;102175.78;5136284;27;20475;-85
2022/09/20 07:12:55;;;;;;;9.30;4.13;;;;;;;11.95;100.00;102179.56;5136961;27;20026;-84
2022/09/20 07:15:23;;;;;;;6.68;4.05;;;;;;;12.05;100.00;102180.94;5137327;27;20075;-85
2022/09/20 07:17:49;;;;;;;6.88;4.63;;;;;;;12.11;100.00;102173.88;5136401;27;20023;-85
2022/09/20 07:20:15;;;;;;;8.10;4.55;;;;;;;12.07;100.00;102172.56;5135438;27;20126;-84
2022/09/20 07:22:41;;;;;;;9.63;4.53;;;;;;;12.15;100.00;102172.47;5118932;27;20123;-84
2022/09/20 07:25:06;;;;;;;7.63;4.00;;;;;;;12.25;100.00;102173.00;5118023;27;20027;-85
2022/09/20 07:27:32;;;;;;;7.90;3.63;;;;;;;12.31;100.00;102173.22;5118121;27;20038;-85
2022/09/20 07:29:57;;;;;;;7.63;3.67;;;;;;;12.39;100.00;102170.38;5136131;27;20440;-85
2022/09/20 07:32:23;;;;;;;8.73;3.80;;;;;;;12.49;100.00;102172.75;5135199;27;20023;-85
2022/09/20 07:34:48;;;;;;;7.75;3.85;;;;;;;12.63;99.82;102164.50;5135388;27;20067;-85
2022/09/20 07:37:17;;;;;;;7.13;3.47;;;;;;;12.70;98.04;102167.31;5135316;27;20360;-85
2022/09/20 07:39:44;;;;;;;7.10;3.58;;;;;;;12.85;97.25;102167.19;5135091;27;20029;-84
2022/09/20 07:42:10;;;;;;;8.45;3.80;;;;;;;13.00;96.84;102175.25;5136713;27;20103;-85
2022/09/20 07:44:35;;;;;;;8.03;3.63;;;;;;;13.08;94.29;102177.84;5118783;27;20481;-85
2022/09/20 07:47:01;;;;;;;5.67;3.20;;;;;;;13.10;94.58;102178.47;5138077;27;20053;-85
2022/09/20 07:49:34;;;;;;;8.40;3.42;;;;;;;13.15;93.82;102188.78;5138914;27;20514;-84
2022/09/20 07:51:59;;;;;;;6.53;2.97;;;;;;;13.19;92.74;102187.34;5138684;27;20113;-84
2022/09/20 07:54:26;;;;;;;7.50;3.63;;;;;;;13.30;93.25;102191.38;5121177;27;20139;-84
2022/09/20 07:56:52;;;;;;;8.18;3.28;;;;;;;13.34;91.41;102187.25;5138024;27;20397;-85
2022/09/20 07:59:17;;;;;;;9.83;3.23;;;;;;;13.52;91.05;102197.59;5138090;27;20058;-85
2022/09/20 08:01:42;;;;;;;8.83;3.50;;;;;;;13.66;91.10;102195.81;5138922;27;20038;-85
2022/09/20 08:04:09;;;;;;;4.78;2.67;;;;;;;13.82;90.03;102194.63;5120600;27;20038;-85
2022/09/20 08:06:39;;;;;;;11.87;2.70;;;;;;;13.86;88.32;102196.72;5137733;27;20031;-85
2022/09/20 08:09:05;;;;;;;10.55;2.78;;;;;;;13.80;88.55;102193.97;5120324;27;20034;-85
2022/09/20 08:11:31;;;;;;;7.03;2.88;;;;;;;13.78;89.17;102199.63;5137595;27;20497;-84
2022/09/20 08:13:59;;;;;;;5.28;2.78;;;;;;;13.80;89.26;102203.00;5137871;27;20026;-85
2022/09/20 08:16:25;;;;;;;5.60;2.90;;;;;;;13.94;88.74;102194.88;5137038;27;20033;-85
2022/09/20 08:18:56;;;;;;;12.25;3.88;;;;;;;14.03;87.84;102196.34;5137524;27;20030;-85
2022/09/20 08:21:23;;;;;;;8.57;2.75;;;;;;;14.33;84.53;102194.09;5138060;27;20099;-85
2022/09/20 08:23:49;;;;;;;7.95;2.95;;;;;;;14.60;83.73;102199.59;5137873;27;20023;-84
2022/09/20 08:26:19;;;;;;;7.25;2.97;;;;;;;14.80;82.77;102205.09;5137676;27;20026;-85
2022/09/20 08:28:48;;;;;;;6.83;2.73;;;;;;;14.92;81.39;102208.00;5138589;27;20027;-85
2022/09/20 08:31:18;;;;;;;7.65;2.45;;;;;;;14.93;80.53;102217.91;5155777;27;20049;-85
2022/09/20 08:33:44;;;;;;;7.70;2.47;;;;;;;14.75;80.51;102202.16;5156078;27;20117;-85
2022/09/20 08:36:16;;;;;;;7.30;2.50;;;;;;;14.61;81.60;102205.91;5137376;27;20118;-85
2022/09/20 08:38:42;;;;;;;5.40;2.28;;;;;;;14.39;80.65;102209.66;5137553;27;20106;-85
2022/09/20 08:41:13;;;;;;;7.03;2.10;;;;;;;14.13;80.34;102206.84;5103397;27;20031;-85
2022/09/20 08:43:44;;;;;;;7.80;2.35;;;;;;;14.02;81.92;102214.63;5137342;27;20031;-85
2022/09/20 08:46:15;;;;;;;9.68;2.03;;;;;;;13.99;81.80;102212.28;5137158;27;20134;-85
2022/09/20 08:48:40;;;;;;;5.47;1.65;;;;;;;14.01;80.16;102206.59;5137630;27;20027;-84
2022/09/20 08:51:11;;;;;;;8.67;2.00;;;;;;;14.00;80.63;102213.13;5155859;27;20087;-85
2022/09/20 08:53:43;;;;;;;6.18;1.80;;;;;;;14.05;81.05;102213.34;5156298;27;20019;-85
2022/09/20 08:56:10;;;;;;;4.80;1.55;;;;;;;14.03;78.81;102216.28;5155724;27;20037;-85
2022/09/20 08:58:37;;;;;;;8.35;1.50;;;;;;;14.09;78.81;102224.72;5120848;27;20110;-85
2022/09/20 09:01:04;;;;;;;8.77;1.40;;;;;;;14.16;78.33;102222.84;5137217;27;20059;-85
2022/09/20 09:03:31;;;;;;;5.20;1.20;;;;;;;14.21;79.02;102221.16;5120080;27;20065;-85
2022/09/20 09:06:00;;;;;;;9.85;2.22;;;;;;;14.16;77.31;102223.69;5136644;27;20034;-85
2022/09/20 09:08:34;;;;;;;5.30;1.10;;;;;;;14.12;78.05;102214.22;5156150;27;20037;-85
2022/09/20 09:11:12;;;;;;;8.02;1.15;;;;;;;14.10;76.67;102221.78;5155272;27;20435;-85
2022/09/20 09:14:03;;;;;;;3.20;0.90;;;;;;;14.12;76.60;102221.56;5138082;27;20034;-84
2022/09/20 09:16:31;;;;;;;6.88;1.00;;;;;;;14.08;72.36;102225.75;5136180;27;20027;-85
2022/09/20 09:19:17;;;;;;;4.97;0.93;;;;;;;14.01;71.38;102222.97;5136977;27;20033;-84
2022/09/20 09:21:43;;;;;;;5.53;1.00;;;;;;;14.04;73.08;102231.63;5136644;27;20042;-85
2022/09/20 09:24:19;;;;;;;6.20;1.10;;;;;;;14.08;71.79;102214.84;5102935;27;20030;-85
2022/09/20 09:26:45;;;;;;;10.00;0.88;;;;;;;14.22;70.86;102224.75;5137401;27;20031;-85
2022/09/20 09:29:22;;;;;;;3.80;1.05;;;;;;;14.54;69.99;102217.66;5140900;27;20152;-85
2022/09/20 09:31:50;;;;;;;4.68;0.90;;;;;;;15.05;66.94;102218.09;5143977;27;20027;-85
2022/09/20 09:34:30;;;;;;;6.23;0.90;;;;;;;15.65;67.30;102219.84;5143274;27;20019;-85
2022/09/20 09:36:56;;;;;;;7.40;0.88;;;;;;;16.18;63.68;102213.31;5143221;27;20023;-85
2022/09/20 09:39:26;;;;;;;6.63;1.25;;;;;;;16.63;62.37;102211.31;5144378;27;20026;-84
2022/09/20 09:41:52;;;;;;;5.70;1.10;;;;;;;17.00;60.90;102216.09;5143551;27;20113;-85
2022/09/20 09:44:23;;;;;;;7.18;1.42;;;;;;;17.24;61.82;102208.91;5143733;27;20382;-85
2022/09/20 09:46:50;;;;;;;5.47;1.23;;;;;;;17.38;59.46;102219.72;5142892;27;20091;-85
2022/09/20 09:49:29;;;;;;;5.38;1.00;;;;;;;17.30;59.64;102218.97;5143454;27;20109;-85
2022/09/20 09:51:54;;;;;;;8.30;1.10;;;;;;;17.24;59.66;102217.13;5143368;27;20038;-85
2022/09/20 09:54:24;;;;;;;6.00;0.90;;;;;;;17.23;59.28;102214.59;5143360;27;20027;-85
2022/09/20 09:57:20;;;;;;;7.72;1.30;;;;;;;17.24;61.28;102222.59;5143646;27;20146;-85
2022/09/20 10:00:12;;;;;;;9.38;1.05;;;;;;;17.15;61.87;102221.22;5162560;27;20031;-85
2022/09/20 10:02:40;;;;;;;5.63;1.00;;;;;;;16.91;60.88;102226.50;5143398;27;20075;-85
2022/09/20 10:05:19;;;;;;;3.07;1.20;;;;;;;16.70;62.47;102226.84;5143566;27;20066;-86
2022/09/20 10:07:50;;;;;;;3.72;1.00;;;;;;;16.65;62.84;102230.28;5143382;27;20474;-86
2022/09/20 10:10:42;;;;;;;8.27;1.33;;;;;;;16.60;65.11;102230.94;5143705;27;20034;-85
2022/09/20 10:13:25;;;;;;;8.65;1.70;;;;;;;16.49;64.73;102229.75;5161831;27;20027;-85
2022/09/20 10:16:00;;;;;;;3.95;1.08;;;;;;;16.43;64.06;102232.53;5143492;27;20038;-86
2022/09/20 10:18:38;;;;;;;3.77;1.03;;;;;;;16.44;63.07;102229.56;5143252;27;20091;-84
2022/09/20 10:21:59;;;;;;;5.53;1.10;;;;;;;16.39;64.47;102234.06;5143658;27;20034;-84
2022/09/20 10:24:44;;;;;;;7.90;1.23;;;;;;;16.17;64.56;102226.19;5140272;27;20467;-84
2022/09/20 10:27:27;;;;;;;5.03;1.15;;;;;;;15.94;64.78;102229.44;5143109;27;20061;-84
2022/09/20 10:30:17;;;;;;;6.32;1.05;;;;;;;15.87;66.93;102231.38;5143321;27;20104;-86
2022/09/20 10:33:08;;;;;;;5.43;1.00;;;;;;;15.75;66.63;102231.19;5143346;27;20057;-85
2022/09/20 10:35:58;;;;;;;4.05;1.08;;;;;;;15.80;67.01;102231.41;5161521;27;20113;-85
2022/09/20 10:38:33;;;;;;;6.63;1.17;;;;;;;15.94;66.38;102234.91;5142961;27;20125;-84
2022/09/20 10:44:13;;;;;;;4.00;0.70;;;;;;;16.46;66.42;102232.09;5157970;27;20042;-85
2022/09/20 10:46:50;;;;;;;4.70;0.83;;;;;;;16.62;63.21;102231.59;5139315;27;20046;-85
2022/09/20 10:49:40;;;;;;;5.18;0.82;;;;;;;16.95;64.39;102232.41;5140335;27;20483;-84
2022/09/20 10:52:08;;;;;;;3.85;0.88;;;;;;;17.35;62.03;102229.28;5139407;27;20062;-84
2022/09/20 10:55:10;;;;;;;3.65;0.95;;;;;;;17.64;62.00;102226.81;5139281;27;20028;-84
2022/09/20 10:58:06;;;;;;;7.97;1.13;;;;;;;17.98;61.34;102230.88;5158148;27;20030;-81
2022/09/20 11:00:41;;;;;;;4.60;1.57;;;;;;;18.32;59.19;102228.50;5157716;27;20050;-85
2022/09/20 11:03:31;;;;;;;5.10;1.98;;;;;;;18.64;59.28;102230.13;5157817;27;20029;-85
2022/09/20 11:06:29;;;;;;;6.65;1.40;;;;;;;18.69;58.81;102231.09;5139148;27;20129;-88
2022/09/20 11:09:07;;;;;;;8.80;1.33;;;;;;;18.74;57.20;102228.47;5138692;27;20083;-86
2022/09/20 11:11:51;;;;;;;7.43;1.20;;;;;;;20.03;58.28;102227.78;5139407;27;20034;-85
2022/09/20 11:14:32;;;;;;;9.03;1.60;;;;;;;23.23;50.50;102222.56;5139240;27;20023;-85
2022/09/20 11:17:08;;;;;;;7.22;1.10;;;;;;;26.27;42.41;102221.38;5157971;27;20022;-85
2022/09/20 11:19:39;;;;;;;4.70;1.10;;;;;;;29.27;35.33;102232.31;5138610;27;20042;-85
2022/09/20 11:22:17;;;;;;;5.93;1.10;;;;;;;32.10;33.34;102230.75;5139394;27;20038;-85
2022/09/20 11:25:19;;;;;;;4.15;1.60;;;;;;;34.91;32.91;102234.59;5139225;27;20030;-86
2022/09/20 11:28:17;;;;;;;4.10;1.80;;;;;;;35.28;28.57;102219.72;5095682;27;20043;-85
2022/09/20 11:31:13;;;;;;;5.90;1.80;;;;;;;32.61;32.35;102219.81;5139491;27;20037;-86
2022/09/20 11:33:52;;;;;;;7.45;1.95;;;;;;;29.87;28.91;102215.41;5131395;27;20038;-86
2022/09/20 11:36:38;;;;;;;7.03;1.55;;;;;;;28.07;34.90;102223.44;5138963;27;20375;-86
2022/09/20 11:39:45;;;;;;;4.88;1.70;;;;;;;26.29;38.35;102226.66;5138918;27;20114;-85
2022/09/20 11:42:15;;;;;;;3.57;1.47;;;;;;;24.32;36.92;102227.41;5098423;27;20131;-86
2022/09/20 11:44:41;;;;;;;8.82;3.78;;;;;;;22.99;38.70;102233.13;5138476;27;20109;-85
2022/09/20 11:47:23;;;;;;;7.80;1.90;;;;;;;22.19;42.53;102237.41;5138518;27;20472;-85
2022/09/20 11:50:22;;;;;;;5.32;1.63;;;;;;;21.30;44.24;102232.97;5138755;27;20030;-85
2022/09/20 11:52:56;;;;;;;3.50;1.05;;;;;;;20.76;44.77;102237.13;5137832;27;20031;-85
2022/09/20 11:55:33;;;;;;;6.73;1.30;;;;;;;20.49;45.04;102237.75;5138263;27;20030;-85
2022/09/20 11:58:07;;;;;;;5.45;1.33;;;;;;;20.39;45.70;102237.56;5138128;27;20022;-85
2022/09/20 12:00:37;;;;;;;6.63;1.30;;;;;;;20.41;45.38;102240.06;5138015;27;20071;-86
2022/09/20 12:03:11;;;;;;;6.40;1.08;;;;;;;20.57;46.39;102233.72;5137896;27;20034;-85
2022/09/20 12:05:40;;;;;;;3.65;1.13;;;;;;;20.74;46.13;102241.22;5138919;27;20050;-86
2022/09/20 12:08:24;;;;;;;7.20;1.30;;;;;;;20.60;46.67;102232.41;5156559;27;20390;-85
2022/09/20 12:11:07;;;;;;;6.68;1.50;;;;;;;20.36;47.49;102240.81;5138177;27;20029;-85
2022/09/20 12:13:36;;;;;;;8.02;1.40;;;;;;;20.15;47.46;102239.56;5157100;27;20029;-86
2022/09/20 12:16:11;;;;;;;7.93;1.55;;;;;;;19.97;47.96;102244.22;5137520;27;20084;-85
2022/09/20 12:19:01;;;;;;;3.45;1.33;;;;;;;20.04;48.57;102243.22;5137822;27;20073;-85
2022/09/20 12:21:27;;;;;;;4.53;1.10;;;;;;;19.94;48.06;102241.94;5138060;27;20023;-85